Terminal Aerodrome Forecast
Issued by NWS

Home | Current Version | Previous Version | Text Only | Print | Product List | Glossary On
Versions: 1 2 3 4 5 6 7 8 9 10 11 12 13 14 15 16 17 18 19 20 21 22 23 24 25 26 27 28 29 30 31 32 33 34 35 36 37 38 39 40 41 42 43 44
656
FTUS45 KBOU 161733
TAFAPA
TAF
KAPA 161733Z 1618/1718 33014KT 3/4SM -SN BR BKN007 OVC012
     FM161900 33012KT 3SM -SN BR SCT008 OVC020
     FM162100 32010KT P6SM VCSH SCT018 OVC030
     FM162200 27005KT P6SM FEW035 BKN050
     FM170100 23006KT P6SM SCT060 SCT220
     FM170400 17006KT P6SM FEW220
     FM171600 VRB04KT P6SM FEW220=

USA.gov is the U.S. government's official web portal to all federal, state and local government web resources and services.